sensor_id;sensor_type;location;lat;lon;timestamp;pressure;altitude;pressure_sealevel;temperature;humidity
60049;BME280;66154;45.544;6.756;2022-12-18T00:02:33;87489.03;;;-3.30;51.08
60049;BME280;66154;45.544;6.756;2022-12-18T00:07:54;87500.59;;;-3.29;51.71
60049;BME280;66154;45.544;6.756;2022-12-18T00:13:15;87513.28;;;-3.35;51.21
60049;BME280;66154;45.544;6.756;2022-12-18T00:18:36;87509.13;;;-3.30;50.17
60049;BME280;66154;45.544;6.756;2022-12-18T00:23:58;87521.06;;;-3.37;51.42
60049;BME280;66154;45.544;6.756;2022-12-18T00:29:19;87517.66;;;-3.31;52.88
60049;BME280;66154;45.544;6.756;2022-12-18T00:34:40;87510.91;;;-3.42;51.65
60049;BME280;66154;45.544;6.756;2022-12-18T00:40:01;87509.59;;;-3.44;51.19
60049;BME280;66154;45.544;6.756;2022-12-18T00:45:30;87521.81;;;-3.36;51.05
60049;BME280;66154;45.544;6.756;2022-12-18T00:50:51;87528.19;;;-3.46;49.01
60049;BME280;66154;45.544;6.756;2022-12-18T00:56:12;87528.03;;;-3.15;49.56
60049;BME280;66154;45.544;6.756;2022-12-18T01:01:33;87533.72;;;-3.20;49.81
60049;BME280;66154;45.544;6.756;2022-12-18T01:06:54;87530.75;;;-3.29;50.94
60049;BME280;66154;45.544;6.756;2022-12-18T01:12:15;87533.75;;;-3.43;51.01
60049;BME280;66154;45.544;6.756;2022-12-18T01:17:36;87551.88;;;-3.30;52.28
60049;BME280;66154;45.544;6.756;2022-12-18T01:22:56;87555.38;;;-3.31;52.55
60049;BME280;66154;45.544;6.756;2022-12-18T01:28:17;87560.94;;;-3.29;52.12
60049;BME280;66154;45.544;6.756;2022-12-18T01:33:38;87572.00;;;-3.41;51.55
60049;BME280;66154;45.544;6.756;2022-12-18T01:39:02;87575.06;;;-3.28;51.40
60049;BME280;66154;45.544;6.756;2022-12-18T01:50:24;87577.81;;;-3.41;48.57
60049;BME280;66154;45.544;6.756;2022-12-18T01:56:06;87583.47;;;-3.34;53.96
60049;BME280;66154;45.544;6.756;2022-12-18T02:01:29;87585.44;;;-3.36;52.13
60049;BME280;66154;45.544;6.756;2022-12-18T02:07:06;87583.69;;;-3.23;50.47
60049;BME280;66154;45.544;6.756;2022-12-18T02:12:43;87584.78;;;-3.43;50.46
60049;BME280;66154;45.544;6.756;2022-12-18T02:18:24;87586.31;;;-3.30;51.36
60049;BME280;66154;45.544;6.756;2022-12-18T02:29:13;87594.28;;;-3.33;51.69
60049;BME280;66154;45.544;6.756;2022-12-18T02:34:38;87587.31;;;-3.31;49.70
60049;BME280;66154;45.544;6.756;2022-12-18T02:39:59;87591.25;;;-3.47;49.73
60049;BME280;66154;45.544;6.756;2022-12-18T02:45:21;87586.09;;;-3.40;48.82
60049;BME280;66154;45.544;6.756;2022-12-18T02:56:21;87610.16;;;-3.44;51.08
60049;BME280;66154;45.544;6.756;2022-12-18T03:07:18;87619.00;;;-3.42;48.66
60049;BME280;66154;45.544;6.756;2022-12-18T03:12:48;87611.59;;;-3.49;50.03
60049;BME280;66154;45.544;6.756;2022-12-18T03:18:54;87603.50;;;-3.39;50.35
60049;BME280;66154;45.544;6.756;2022-12-18T03:24:18;87604.59;;;-3.58;50.35
60049;BME280;66154;45.544;6.756;2022-12-18T03:29:51;87604.91;;;-3.31;50.09
60049;BME280;66154;45.544;6.756;2022-12-18T03:35:14;87607.75;;;-3.28;50.15
60049;BME280;66154;45.544;6.756;2022-12-18T03:46:26;87626.44;;;-3.35;49.71
60049;BME280;66154;45.544;6.756;2022-12-18T03:51:53;87624.81;;;-3.30;51.30
60049;BME280;66154;45.544;6.756;2022-12-18T03:57:20;87624.25;;;-3.32;50.68
60049;BME280;66154;45.544;6.756;2022-12-18T04:02:49;87630.16;;;-3.38;51.21
60049;BME280;66154;45.544;6.756;2022-12-18T04:08:12;87631.25;;;-3.46;50.01
60049;BME280;66154;45.544;6.756;2022-12-18T04:13:37;87629.38;;;-3.38;50.67
60049;BME280;66154;45.544;6.756;2022-12-18T04:18:58;87632.56;;;-3.31;50.07
60049;BME280;66154;45.544;6.756;2022-12-18T04:24:19;87632.56;;;-3.31;50.83
60049;BME280;66154;45.544;6.756;2022-12-18T04:29:40;87640.13;;;-3.31;49.01
60049;BME280;66154;45.544;6.756;2022-12-18T04:35:01;87632.56;;;-3.43;51.07
60049;BME280;66154;45.544;6.756;2022-12-18T04:40:24;87649.63;;;-3.45;51.18
60049;BME280;66154;45.544;6.756;2022-12-18T04:45:45;87643.28;;;-3.36;49.18
60049;BME280;66154;45.544;6.756;2022-12-18T04:51:06;87655.06;;;-3.36;50.61
60049;BME280;66154;45.544;6.756;2022-12-18T04:56:27;87658.47;;;-3.31;49.73
60049;BME280;66154;45.544;6.756;2022-12-18T05:01:48;87662.72;;;-3.43;50.73
60049;BME280;66154;45.544;6.756;2022-12-18T05:07:08;87661.84;;;-3.37;49.21
60049;BME280;66154;45.544;6.756;2022-12-18T05:12:30;87666.03;;;-3.31;51.61
60049;BME280;66154;45.544;6.756;2022-12-18T05:17:51;87673.03;;;-3.21;48.33
60049;BME280;66154;45.544;6.756;2022-12-18T05:23:12;87676.06;;;-3.31;48.37
60049;BME280;66154;45.544;6.756;2022-12-18T05:28:35;87680.78;;;-3.22;48.78
60049;BME280;66154;45.544;6.756;2022-12-18T05:33:57;87695.97;;;-3.41;49.00
60049;BME280;66154;45.544;6.756;2022-12-18T05:39:18;87701.31;;;-3.49;49.05
60049;BME280;66154;45.544;6.756;2022-12-18T05:44:39;87701.66;;;-3.34;49.67
60049;BME280;66154;45.544;6.756;2022-12-18T05:49:59;87702.97;;;-3.19;48.43
60049;BME280;66154;45.544;6.756;2022-12-18T05:55:20;87704.63;;;-3.25;47.33
60049;BME280;66154;45.544;6.756;2022-12-18T06:00:44;87710.22;;;-3.11;46.97
60049;BME280;66154;45.544;6.756;2022-12-18T06:06:13;87714.78;;;-3.32;49.06
60049;BME280;66154;45.544;6.756;2022-12-18T06:11:35;87725.84;;;-3.33;49.72
60049;BME280;66154;45.544;6.756;2022-12-18T06:16:57;87720.84;;;-3.09;45.37
60049;BME280;66154;45.544;6.756;2022-12-18T06:22:18;87727.72;;;-3.16;48.92
60049;BME280;66154;45.544;6.756;2022-12-18T06:27:39;87729.44;;;-3.29;50.18
60049;BME280;66154;45.544;6.756;2022-12-18T06:33:00;87742.56;;;-3.26;49.71
60049;BME280;66154;45.544;6.756;2022-12-18T06:38:21;87739.25;;;-3.39;49.44
60049;BME280;66154;45.544;6.756;2022-12-18T06:43:42;87748.03;;;-3.30;48.23
60049;BME280;66154;45.544;6.756;2022-12-18T06:49:03;87744.72;;;-3.30;49.33
60049;BME280;66154;45.544;6.756;2022-12-18T06:54:24;87748.91;;;-3.36;49.37
60049;BME280;66154;45.544;6.756;2022-12-18T06:59:45;87756.56;;;-3.31;49.20
60049;BME280;66154;45.544;6.756;2022-12-18T07:05:06;87763.78;;;-3.34;49.03
60049;BME280;66154;45.544;6.756;2022-12-18T07:10:27;87773.94;;;-3.41;47.71
60049;BME280;66154;45.544;6.756;2022-12-18T07:15:48;87773.41;;;-3.19;47.49
60049;BME280;66154;45.544;6.756;2022-12-18T07:21:13;87787.97;;;-3.10;48.07
60049;BME280;66154;45.544;6.756;2022-12-18T07:26:34;87793.75;;;-3.21;49.35
60049;BME280;66154;45.544;6.756;2022-12-18T07:31:55;87807.66;;;-3.18;49.71
60049;BME280;66154;45.544;6.756;2022-12-18T07:37:16;87816.88;;;-3.00;45.01
60049;BME280;66154;45.544;6.756;2022-12-18T07:42:37;87826.91;;;-3.12;46.66
60049;BME280;66154;45.544;6.756;2022-12-18T07:47:58;87828.22;;;-3.10;47.06
60049;BME280;66154;45.544;6.756;2022-12-18T07:53:19;87835.41;;;-3.25;47.21
60049;BME280;66154;45.544;6.756;2022-12-18T07:58:40;87834.16;;;-3.04;48.00
60049;BME280;66154;45.544;6.756;2022-12-18T08:04:01;87844.56;;;-3.00;47.25
60049;BME280;66154;45.544;6.756;2022-12-18T08:09:22;87851.00;;;-3.04;47.75
60049;BME280;66154;45.544;6.756;2022-12-18T08:14:43;87842.94;;;-2.95;48.51
60049;BME280;66154;45.544;6.756;2022-12-18T08:20:04;87842.38;;;-2.97;46.84
60049;BME280;66154;45.544;6.756;2022-12-18T08:25:25;87841.38;;;-2.96;48.14
60049;BME280;66154;45.544;6.756;2022-12-18T08:30:51;87843.47;;;-2.93;49.04
60049;BME280;66154;45.544;6.756;2022-12-18T08:36:12;87841.72;;;-2.92;48.32
60049;BME280;66154;45.544;6.756;2022-12-18T08:41:33;87854.78;;;-2.83;48.41
60049;BME280;66154;45.544;6.756;2022-12-18T08:46:54;87852.81;;;-2.81;47.97
60049;BME280;66154;45.544;6.756;2022-12-18T08:52:15;87857.38;;;-2.90;47.97
60049;BME280;66154;45.544;6.756;2022-12-18T08:57:36;87850.94;;;-2.86;45.58
60049;BME280;66154;45.544;6.756;2022-12-18T09:02:57;87843.16;;;-2.84;46.60
60049;BME280;66154;45.544;6.756;2022-12-18T09:08:18;87829.94;;;-2.92;45.96
60049;BME280;66154;45.544;6.756;2022-12-18T09:13:39;87835.41;;;-2.83;45.90
60049;BME280;66154;45.544;6.756;2022-12-18T09:19:01;87838.59;;;-2.64;47.86
60049;BME280;66154;45.544;6.756;2022-12-18T09:24:23;87850.66;;;-2.54;48.30
60049;BME280;66154;45.544;6.756;2022-12-18T09:29:44;87851.66;;;-2.43;46.74
60049;BME280;66154;45.544;6.756;2022-12-18T09:35:05;87835.22;;;-2.34;46.89
60049;BME280;66154;45.544;6.756;2022-12-18T09:40:36;87845.75;;;-2.13;44.32
60049;BME280;66154;45.544;6.756;2022-12-18T09:46:04;87853.28;;;-1.90;46.44
60049;BME280;66154;45.544;6.756;2022-12-18T09:51:32;87854.13;;;-1.84;47.05
60049;BME280;66154;45.544;6.756;2022-12-18T09:56:55;87840.00;;;-1.73;47.26
60049;BME280;66154;45.544;6.756;2022-12-18T10:02:24;87838.25;;;-1.32;43.70
60049;BME280;66154;45.544;6.756;2022-12-18T10:08:03;87833.38;;;-1.22;44.10
60049;BME280;66154;45.544;6.756;2022-12-18T10:13:39;87838.59;;;-1.40;47.13
60049;BME280;66154;45.544;6.756;2022-12-18T10:19:20;87840.41;;;-0.95;39.96
60049;BME280;66154;45.544;6.756;2022-12-18T10:24:54;87839.59;;;-0.84;40.87
60049;BME280;66154;45.544;6.756;2022-12-18T10:30:20;87831.47;;;-0.18;39.77
60049;BME280;66154;45.544;6.756;2022-12-18T10:35:42;87824.91;;;0.03;36.75
60049;BME280;66154;45.544;6.756;2022-12-18T10:41:06;87809.66;;;0.15;38.77
60049;BME280;66154;45.544;6.756;2022-12-18T10:46:35;87821.94;;;0.06;41.99
60049;BME280;66154;45.544;6.756;2022-12-18T10:52:11;87834.69;;;0.33;40.71
60049;BME280;66154;45.544;6.756;2022-12-18T10:57:39;87834.78;;;0.44;36.20
60049;BME280;66154;45.544;6.756;2022-12-18T11:03:02;87837.50;;;0.37;39.88
60049;BME280;66154;45.544;6.756;2022-12-18T11:08:23;87829.75;;;0.44;40.89
60049;BME280;66154;45.544;6.756;2022-12-18T11:14:14;87837.38;;;0.49;44.20
60049;BME280;66154;45.544;6.756;2022-12-18T11:19:42;87830.97;;;0.63;43.15
60049;BME280;66154;45.544;6.756;2022-12-18T11:30:35;87817.03;;;0.83;43.56
60049;BME280;66154;45.544;6.756;2022-12-18T11:35:59;87810.53;;;0.92;40.74
60049;BME280;66154;45.544;6.756;2022-12-18T11:41:39;87798.00;;;1.07;34.97
60049;BME280;66154;45.544;6.756;2022-12-18T11:52:53;87793.56;;;1.20;36.77
60049;BME280;66154;45.544;6.756;2022-12-18T12:15:24;87784.41;;;1.19;42.09
60049;BME280;66154;45.544;6.756;2022-12-18T12:21:03;87789.47;;;1.46;43.79
60049;BME280;66154;45.544;6.756;2022-12-18T12:27:03;87776.84;;;1.51;39.04
60049;BME280;66154;45.544;6.756;2022-12-18T12:32:34;87770.78;;;1.57;39.19
60049;BME280;66154;45.544;6.756;2022-12-18T12:38:09;87770.38;;;1.71;38.79
60049;BME280;66154;45.544;6.756;2022-12-18T12:43:33;87763.25;;;2.15;41.87
60049;BME280;66154;45.544;6.756;2022-12-18T12:48:58;87750.84;;;3.85;37.61
60049;BME280;66154;45.544;6.756;2022-12-18T12:54:24;87746.28;;;7.51;31.11
60049;BME280;66154;45.544;6.756;2022-12-18T13:05:52;87752.16;;;13.65;21.33
60049;BME280;66154;45.544;6.756;2022-12-18T13:11:32;87742.88;;;15.18;19.54
60049;BME280;66154;45.544;6.756;2022-12-18T13:17:28;87737.03;;;17.28;18.69
60049;BME280;66154;45.544;6.756;2022-12-18T13:22:49;87743.81;;;16.57;18.82
60049;BME280;66154;45.544;6.756;2022-12-18T13:33:48;87747.63;;;18.22;17.30
60049;BME280;66154;45.544;6.756;2022-12-18T13:49:54;87751.97;;;7.29;28.93
60049;BME280;66154;45.544;6.756;2022-12-18T13:55:19;87751.13;;;6.23;30.79
60049;BME280;66154;45.544;6.756;2022-12-18T14:00:42;87747.00;;;5.29;30.23
60049;BME280;66154;45.544;6.756;2022-12-18T14:06:06;87738.25;;;4.40;32.38
60049;BME280;66154;45.544;6.756;2022-12-18T14:11:28;87742.19;;;4.02;32.72
60049;BME280;66154;45.544;6.756;2022-12-18T14:16:50;87740.09;;;4.24;33.58
60049;BME280;66154;45.544;6.756;2022-12-18T14:22:19;87753.41;;;3.75;34.76
60049;BME280;66154;45.544;6.756;2022-12-18T14:27:44;87769.19;;;3.25;34.42
60049;BME280;66154;45.544;6.756;2022-12-18T14:33:09;87763.09;;;3.42;35.93
60049;BME280;66154;45.544;6.756;2022-12-18T14:38:39;87775.03;;;3.47;36.22
60049;BME280;66154;45.544;6.756;2022-12-18T14:44:06;87777.84;;;3.40;36.01
60049;BME280;66154;45.544;6.756;2022-12-18T14:49:32;87778.13;;;2.44;39.76
60049;BME280;66154;45.544;6.756;2022-12-18T14:54:54;87775.84;;;2.48;38.75
60049;BME280;66154;45.544;6.756;2022-12-18T15:00:18;87782.00;;;2.67;39.94
60049;BME280;66154;45.544;6.756;2022-12-18T15:05:39;87788.81;;;2.57;38.72
60049;BME280;66154;45.544;6.756;2022-12-18T15:11:00;87791.72;;;2.23;39.31
60049;BME280;66154;45.544;6.756;2022-12-18T15:16:21;87793.94;;;2.62;38.32
60049;BME280;66154;45.544;6.756;2022-12-18T15:21:43;87798.94;;;2.51;41.77
60049;BME280;66154;45.544;6.756;2022-12-18T15:27:04;87799.50;;;2.59;41.16
60049;BME280;66154;45.544;6.756;2022-12-18T15:32:25;87808.91;;;2.10;42.28
60049;BME280;66154;45.544;6.756;2022-12-18T15:37:46;87813.47;;;2.13;42.20
60049;BME280;66154;45.544;6.756;2022-12-18T15:43:08;87818.56;;;2.13;42.65
60049;BME280;66154;45.544;6.756;2022-12-18T15:48:52;87813.56;;;1.81;41.89
60049;BME280;66154;45.544;6.756;2022-12-18T15:54:14;87817.75;;;1.65;44.43
60049;BME280;66154;45.544;6.756;2022-12-18T15:59:56;87824.91;;;1.73;43.28
60049;BME280;66154;45.544;6.756;2022-12-18T16:05:20;87825.28;;;1.60;45.31
60049;BME280;66154;45.544;6.756;2022-12-18T16:10:42;87819.75;;;1.31;43.68
60049;BME280;66154;45.544;6.756;2022-12-18T16:16:03;87829.91;;;1.36;44.32
60049;BME280;66154;45.544;6.756;2022-12-18T16:21:24;87842.16;;;1.17;46.13
60049;BME280;66154;45.544;6.756;2022-12-18T16:26:45;87841.78;;;1.30;45.94
60049;BME280;66154;45.544;6.756;2022-12-18T16:32:14;87832.50;;;1.14;43.61
60049;BME280;66154;45.544;6.756;2022-12-18T16:37:36;87832.03;;;0.67;47.12
60049;BME280;66154;45.544;6.756;2022-12-18T16:42:56;87827.44;;;1.14;44.86
60049;BME280;66154;45.544;6.756;2022-12-18T16:48:17;87835.03;;;1.14;43.21
60049;BME280;66154;45.544;6.756;2022-12-18T16:53:38;87835.34;;;0.95;41.88
60049;BME280;66154;45.544;6.756;2022-12-18T16:59:00;87842.34;;;1.10;43.24
60049;BME280;66154;45.544;6.756;2022-12-18T17:04:22;87834.91;;;1.25;40.79
60049;BME280;66154;45.544;6.756;2022-12-18T17:09:43;87846.72;;;0.93;44.86
60049;BME280;66154;45.544;6.756;2022-12-18T17:15:08;87848.34;;;0.77;45.43
60049;BME280;66154;45.544;6.756;2022-12-18T17:20:29;87841.94;;;0.96;45.85
60049;BME280;66154;45.544;6.756;2022-12-18T17:25:53;87830.72;;;0.65;47.03
60049;BME280;66154;45.544;6.756;2022-12-18T17:31:20;87833.25;;;0.65;46.21
60049;BME280;66154;45.544;6.756;2022-12-18T17:36:42;87825.28;;;0.51;46.89
60049;BME280;66154;45.544;6.756;2022-12-18T17:42:03;87824.13;;;0.86;45.86
60049;BME280;66154;45.544;6.756;2022-12-18T17:47:24;87823.75;;;0.99;47.12
60049;BME280;66154;45.544;6.756;2022-12-18T17:52:45;87829.25;;;0.91;44.44
60049;BME280;66154;45.544;6.756;2022-12-18T17:58:06;87842.16;;;0.89;46.39
60049;BME280;66154;45.544;6.756;2022-12-18T18:03:27;87845.47;;;0.95;41.56
60049;BME280;66154;45.544;6.756;2022-12-18T18:08:48;87849.94;;;0.83;43.32
60049;BME280;66154;45.544;6.756;2022-12-18T18:14:18;87851.31;;;0.96;44.92
60049;BME280;66154;45.544;6.756;2022-12-18T18:19:39;87847.22;;;0.89;46.04
60049;BME280;66154;45.544;6.756;2022-12-18T18:25:01;87832.88;;;1.00;45.70
60049;BME280;66154;45.544;6.756;2022-12-18T18:30:23;87846.53;;;0.99;45.87
60049;BME280;66154;45.544;6.756;2022-12-18T18:35:44;87852.53;;;1.15;43.35
60049;BME280;66154;45.544;6.756;2022-12-18T18:41:05;87863.19;;;1.17;46.13
60049;BME280;66154;45.544;6.756;2022-12-18T18:46:26;87855.53;;;1.12;45.25
60049;BME280;66154;45.544;6.756;2022-12-18T18:51:49;87870.97;;;1.11;46.63
60049;BME280;66154;45.544;6.756;2022-12-18T18:57:10;87877.75;;;1.05;46.92
60049;BME280;66154;45.544;6.756;2022-12-18T19:02:31;87880.47;;;0.98;47.08
60049;BME280;66154;45.544;6.756;2022-12-18T19:07:52;87869.75;;;0.91;45.31
60049;BME280;66154;45.544;6.756;2022-12-18T19:13:13;87869.72;;;0.86;45.99
60049;BME280;66154;45.544;6.756;2022-12-18T19:18:44;87882.66;;;0.67;46.24
60049;BME280;66154;45.544;6.756;2022-12-18T19:24:05;87870.28;;;0.71;46.41
60049;BME280;66154;45.544;6.756;2022-12-18T19:29:26;87885.22;;;0.50;46.32
60049;BME280;66154;45.544;6.756;2022-12-18T19:34:47;87893.44;;;0.80;43.74
60049;BME280;66154;45.544;6.756;2022-12-18T19:40:08;87880.94;;;0.95;47.31
60049;BME280;66154;45.544;6.756;2022-12-18T19:45:29;87865.16;;;1.10;47.80
60049;BME280;66154;45.544;6.756;2022-12-18T19:50:50;87882.16;;;1.15;48.48
60049;BME280;66154;45.544;6.756;2022-12-18T19:56:14;87880.03;;;1.56;38.49
60049;BME280;66154;45.544;6.756;2022-12-18T20:01:35;87878.91;;;1.47;42.72
60049;BME280;66154;45.544;6.756;2022-12-18T20:06:56;87887.28;;;1.47;45.83
60049;BME280;66154;45.544;6.756;2022-12-18T20:12:17;87878.50;;;1.27;48.77
60049;BME280;66154;45.544;6.756;2022-12-18T20:17:38;87888.38;;;1.29;49.17
60049;BME280;66154;45.544;6.756;2022-12-18T20:22:59;87893.63;;;1.44;49.38
60049;BME280;66154;45.544;6.756;2022-12-18T20:28:21;87883.00;;;1.48;48.01
60049;BME280;66154;45.544;6.756;2022-12-18T20:33:42;87881.94;;;1.43;49.17
60049;BME280;66154;45.544;6.756;2022-12-18T20:39:06;87880.97;;;1.50;45.28
60049;BME280;66154;45.544;6.756;2022-12-18T20:44:27;87874.28;;;1.66;43.91
60049;BME280;66154;45.544;6.756;2022-12-18T20:49:47;87873.31;;;1.72;49.58
60049;BME280;66154;45.544;6.756;2022-12-18T20:55:08;87866.16;;;1.63;49.95
60049;BME280;66154;45.544;6.756;2022-12-18T21:00:29;87872.97;;;1.63;49.69
60049;BME280;66154;45.544;6.756;2022-12-18T21:05:50;87874.09;;;1.77;48.44
60049;BME280;66154;45.544;6.756;2022-12-18T21:17:01;87860.19;;;1.80;51.52
60049;BME280;66154;45.544;6.756;2022-12-18T21:22:22;87863.59;;;1.96;48.58
60049;BME280;66154;45.544;6.756;2022-12-18T21:27:43;87861.09;;;2.01;51.76
60049;BME280;66154;45.544;6.756;2022-12-18T21:33:04;87835.72;;;2.01;47.91
60049;BME280;66154;45.544;6.756;2022-12-18T21:38:28;87854.09;;;2.18;43.19
60049;BME280;66154;45.544;6.756;2022-12-18T21:43:54;87842.09;;;2.04;49.48
60049;BME280;66154;45.544;6.756;2022-12-18T21:49:26;87851.53;;;2.13;50.35
60049;BME280;66154;45.544;6.756;2022-12-18T21:54:47;87844.41;;;2.10;48.49
60049;BME280;66154;45.544;6.756;2022-12-18T22:00:11;87845.16;;;2.11;50.31
60049;BME280;66154;45.544;6.756;2022-12-18T22:05:33;87848.72;;;2.10;51.20
60049;BME280;66154;45.544;6.756;2022-12-18T22:10:54;87848.50;;;2.16;50.66
60049;BME280;66154;45.544;6.756;2022-12-18T22:16:15;87849.72;;;2.09;53.31
60049;BME280;66154;45.544;6.756;2022-12-18T22:21:39;87861.72;;;2.18;50.59
60049;BME280;66154;45.544;6.756;2022-12-18T22:27:00;87872.75;;;1.97;52.73
60049;BME280;66154;45.544;6.756;2022-12-18T22:32:21;87873.16;;;2.21;51.42
60049;BME280;66154;45.544;6.756;2022-12-18T22:37:42;87871.38;;;2.22;52.82
60049;BME280;66154;45.544;6.756;2022-12-18T22:43:03;87876.94;;;2.18;51.77
60049;BME280;66154;45.544;6.756;2022-12-18T22:48:24;87873.94;;;2.27;49.84
60049;BME280;66154;45.544;6.756;2022-12-18T22:53:46;87873.13;;;2.16;52.28
60049;BME280;66154;45.544;6.756;2022-12-18T22:59:07;87869.91;;;2.31;49.17
60049;BME280;66154;45.544;6.756;2022-12-18T23:04:29;87870.91;;;2.30;50.82
60049;BME280;66154;45.544;6.756;2022-12-18T23:09:50;87879.09;;;2.37;44.54
60049;BME280;66154;45.544;6.756;2022-12-18T23:15:11;87880.50;;;2.17;46.75
60049;BME280;66154;45.544;6.756;2022-12-18T23:20:33;87889.13;;;2.22;51.18
60049;BME280;66154;45.544;6.756;2022-12-18T23:26:02;87890.09;;;2.15;51.91
60049;BME280;66154;45.544;6.756;2022-12-18T23:31:27;87895.47;;;2.19;53.98
60049;BME280;66154;45.544;6.756;2022-12-18T23:36:48;87898.03;;;2.19;53.26
60049;BME280;66154;45.544;6.756;2022-12-18T23:42:09;87894.94;;;2.17;52.65
60049;BME280;66154;45.544;6.756;2022-12-18T23:47:30;87905.38;;;2.21;54.68
60049;BME280;66154;45.544;6.756;2022-12-18T23:52:51;87904.31;;;2.11;53.82
60049;BME280;66154;45.544;6.756;2022-12-18T23:58:18;87905.44;;;2.31;53.98
